sensor_id;sensor_type;location;lat;lon;timestamp;temperature;humidity
6792;DHT22;3433;48.730;9.108;2022-08-21T00:00:09;18.20;84.20
6792;DHT22;3433;48.730;9.108;2022-08-21T00:03:00;18.10;84.20
6792;DHT22;3433;48.730;9.108;2022-08-21T00:05:49;18.10;84.60
6792;DHT22;3433;48.730;9.108;2022-08-21T00:08:37;18.00;84.90
6792;DHT22;3433;48.730;9.108;2022-08-21T00:11:25;18.00;84.60
6792;DHT22;3433;48.730;9.108;2022-08-21T00:14:13;18.00;84.80
6792;DHT22;3433;48.730;9.108;2022-08-21T00:17:01;17.90;84.80
6792;DHT22;3433;48.730;9.108;2022-08-21T00:19:50;17.90;84.90
6792;DHT22;3433;48.730;9.108;2022-08-21T00:22:37;17.90;84.90
6792;DHT22;3433;48.730;9.108;2022-08-21T00:25:26;17.90;85.00
6792;DHT22;3433;48.730;9.108;2022-08-21T00:28:14;17.90;84.90
6792;DHT22;3433;48.730;9.108;2022-08-21T00:31:01;17.90;85.20
6792;DHT22;3433;48.730;9.108;2022-08-21T00:33:49;17.90;85.10
6792;DHT22;3433;48.730;9.108;2022-08-21T00:36:39;17.90;85.10
6792;DHT22;3433;48.730;9.108;2022-08-21T00:39:26;17.80;85.20
6792;DHT22;3433;48.730;9.108;2022-08-21T00:42:14;17.80;85.20
6792;DHT22;3433;48.730;9.108;2022-08-21T00:45:02;17.80;85.50
6792;DHT22;3433;48.730;9.108;2022-08-21T00:47:51;17.80;85.50
6792;DHT22;3433;48.730;9.108;2022-08-21T00:50:43;17.70;85.40
6792;DHT22;3433;48.730;9.108;2022-08-21T00:53:33;17.70;85.40
6792;DHT22;3433;48.730;9.108;2022-08-21T00:56:23;17.60;85.60
6792;DHT22;3433;48.730;9.108;2022-08-21T00:59:10;17.60;85.60
6792;DHT22;3433;48.730;9.108;2022-08-21T01:01:58;17.60;85.70
6792;DHT22;3433;48.730;9.108;2022-08-21T01:04:45;17.50;85.70
6792;DHT22;3433;48.730;9.108;2022-08-21T01:07:33;17.50;85.80
6792;DHT22;3433;48.730;9.108;2022-08-21T01:10:22;17.50;85.90
6792;DHT22;3433;48.730;9.108;2022-08-21T01:13:11;17.50;86.00
6792;DHT22;3433;48.730;9.108;2022-08-21T01:16:02;17.50;86.00
6792;DHT22;3433;48.730;9.108;2022-08-21T01:18:51;17.40;86.00
6792;DHT22;3433;48.730;9.108;2022-08-21T01:21:40;17.40;86.30
6792;DHT22;3433;48.730;9.108;2022-08-21T01:24:27;17.40;86.40
6792;DHT22;3433;48.730;9.108;2022-08-21T01:27:14;17.40;86.40
6792;DHT22;3433;48.730;9.108;2022-08-21T01:30:09;17.30;86.50
6792;DHT22;3433;48.730;9.108;2022-08-21T01:32:57;17.30;86.50
6792;DHT22;3433;48.730;9.108;2022-08-21T01:35:45;17.30;86.60
6792;DHT22;3433;48.730;9.108;2022-08-21T01:38:34;17.20;86.60
6792;DHT22;3433;48.730;9.108;2022-08-21T01:41:22;17.20;87.00
6792;DHT22;3433;48.730;9.108;2022-08-21T01:44:09;17.20;87.00
6792;DHT22;3433;48.730;9.108;2022-08-21T01:46:58;17.10;87.00
6792;DHT22;3433;48.730;9.108;2022-08-21T01:49:46;17.10;87.20
6792;DHT22;3433;48.730;9.108;2022-08-21T01:52:33;17.10;87.10
6792;DHT22;3433;48.730;9.108;2022-08-21T01:55:22;17.00;87.30
6792;DHT22;3433;48.730;9.108;2022-08-21T01:58:10;17.00;87.50
6792;DHT22;3433;48.730;9.108;2022-08-21T02:00:57;17.00;87.40
6792;DHT22;3433;48.730;9.108;2022-08-21T02:03:44;16.90;87.60
6792;DHT22;3433;48.730;9.108;2022-08-21T02:06:32;16.90;87.80
6792;DHT22;3433;48.730;9.108;2022-08-21T02:09:19;16.90;87.90
6792;DHT22;3433;48.730;9.108;2022-08-21T02:12:09;16.90;88.10
6792;DHT22;3433;48.730;9.108;2022-08-21T02:14:56;16.90;88.50
6792;DHT22;3433;48.730;9.108;2022-08-21T02:17:45;16.90;88.40
6792;DHT22;3433;48.730;9.108;2022-08-21T02:20:35;16.80;88.60
6792;DHT22;3433;48.730;9.108;2022-08-21T02:23:23;16.80;88.30
6792;DHT22;3433;48.730;9.108;2022-08-21T02:26:11;16.80;88.60
6792;DHT22;3433;48.730;9.108;2022-08-21T02:29:00;16.80;88.60
6792;DHT22;3433;48.730;9.108;2022-08-21T02:31:48;16.80;88.60
6792;DHT22;3433;48.730;9.108;2022-08-21T02:34:36;16.70;88.60
6792;DHT22;3433;48.730;9.108;2022-08-21T02:37:23;16.70;88.80
6792;DHT22;3433;48.730;9.108;2022-08-21T02:40:12;16.70;89.00
6792;DHT22;3433;48.730;9.108;2022-08-21T02:43:01;16.70;89.00
6792;DHT22;3433;48.730;9.108;2022-08-21T02:45:50;16.70;89.00
6792;DHT22;3433;48.730;9.108;2022-08-21T02:48:38;16.70;89.00
6792;DHT22;3433;48.730;9.108;2022-08-21T02:51:25;16.70;89.10
6792;DHT22;3433;48.730;9.108;2022-08-21T02:54:12;16.70;89.40
6792;DHT22;3433;48.730;9.108;2022-08-21T02:57:00;16.60;89.30
6792;DHT22;3433;48.730;9.108;2022-08-21T02:59:47;16.60;89.60
6792;DHT22;3433;48.730;9.108;2022-08-21T03:02:36;16.60;89.50
6792;DHT22;3433;48.730;9.108;2022-08-21T03:05:24;16.50;89.40
6792;DHT22;3433;48.730;9.108;2022-08-21T03:08:13;16.50;89.50
6792;DHT22;3433;48.730;9.108;2022-08-21T03:11:01;16.50;89.50
6792;DHT22;3433;48.730;9.108;2022-08-21T03:13:48;16.50;89.70
6792;DHT22;3433;48.730;9.108;2022-08-21T03:16:35;16.50;89.80
6792;DHT22;3433;48.730;9.108;2022-08-21T03:19:24;16.50;89.90
6792;DHT22;3433;48.730;9.108;2022-08-21T03:22:11;16.50;89.80
6792;DHT22;3433;48.730;9.108;2022-08-21T03:24:58;16.50;89.90
6792;DHT22;3433;48.730;9.108;2022-08-21T03:27:46;16.50;90.00
6792;DHT22;3433;48.730;9.108;2022-08-21T03:30:34;16.40;90.00
6792;DHT22;3433;48.730;9.108;2022-08-21T03:33:22;16.40;90.00
6792;DHT22;3433;48.730;9.108;2022-08-21T03:36:11;16.40;90.10
6792;DHT22;3433;48.730;9.108;2022-08-21T03:38:58;16.40;90.10
6792;DHT22;3433;48.730;9.108;2022-08-21T03:41:45;16.40;90.10
6792;DHT22;3433;48.730;9.108;2022-08-21T03:44:33;16.30;90.10
6792;DHT22;3433;48.730;9.108;2022-08-21T03:47:20;16.30;90.20
6792;DHT22;3433;48.730;9.108;2022-08-21T03:50:09;16.30;90.20
6792;DHT22;3433;48.730;9.108;2022-08-21T03:52:59;16.20;90.20
6792;DHT22;3433;48.730;9.108;2022-08-21T03:55:47;16.20;90.20
6792;DHT22;3433;48.730;9.108;2022-08-21T03:58:34;16.20;90.30
6792;DHT22;3433;48.730;9.108;2022-08-21T04:01:22;16.10;90.60
6792;DHT22;3433;48.730;9.108;2022-08-21T04:04:09;16.10;90.30
6792;DHT22;3433;48.730;9.108;2022-08-21T04:06:57;16.00;90.40
6792;DHT22;3433;48.730;9.108;2022-08-21T04:09:45;16.00;90.40
6792;DHT22;3433;48.730;9.108;2022-08-21T04:12:33;16.00;90.40
6792;DHT22;3433;48.730;9.108;2022-08-21T04:15:21;15.90;90.50
6792;DHT22;3433;48.730;9.108;2022-08-21T04:18:08;15.90;90.50
6792;DHT22;3433;48.730;9.108;2022-08-21T04:20:57;15.90;90.60
6792;DHT22;3433;48.730;9.108;2022-08-21T04:23:45;15.80;90.70
6792;DHT22;3433;48.730;9.108;2022-08-21T04:26:34;15.80;90.80
6792;DHT22;3433;48.730;9.108;2022-08-21T04:29:21;15.80;90.90
6792;DHT22;3433;48.730;9.108;2022-08-21T04:32:09;15.80;90.90
6792;DHT22;3433;48.730;9.108;2022-08-21T04:35:03;15.80;91.00
6792;DHT22;3433;48.730;9.108;2022-08-21T04:37:51;15.80;91.10
6792;DHT22;3433;48.730;9.108;2022-08-21T04:40:38;15.80;91.10
6792;DHT22;3433;48.730;9.108;2022-08-21T04:43:27;15.80;91.10
6792;DHT22;3433;48.730;9.108;2022-08-21T04:46:14;15.80;91.20
6792;DHT22;3433;48.730;9.108;2022-08-21T04:49:02;15.80;91.20
6792;DHT22;3433;48.730;9.108;2022-08-21T04:51:49;15.70;91.20
6792;DHT22;3433;48.730;9.108;2022-08-21T04:54:37;15.70;91.40
6792;DHT22;3433;48.730;9.108;2022-08-21T04:57:25;15.70;91.40
6792;DHT22;3433;48.730;9.108;2022-08-21T05:00:15;15.70;91.50
6792;DHT22;3433;48.730;9.108;2022-08-21T05:03:05;15.70;91.70
6792;DHT22;3433;48.730;9.108;2022-08-21T05:05:54;15.70;91.70
6792;DHT22;3433;48.730;9.108;2022-08-21T05:08:43;15.80;92.00
6792;DHT22;3433;48.730;9.108;2022-08-21T05:11:32;15.70;92.10
6792;DHT22;3433;48.730;9.108;2022-08-21T05:14:20;15.80;92.20
6792;DHT22;3433;48.730;9.108;2022-08-21T05:17:09;15.80;92.30
6792;DHT22;3433;48.730;9.108;2022-08-21T05:19:56;15.80;92.30
6792;DHT22;3433;48.730;9.108;2022-08-21T05:22:44;15.90;92.40
6792;DHT22;3433;48.730;9.108;2022-08-21T05:25:31;15.90;92.50
6792;DHT22;3433;48.730;9.108;2022-08-21T05:28:18;16.00;92.60
6792;DHT22;3433;48.730;9.108;2022-08-21T05:31:06;16.00;92.60
6792;DHT22;3433;48.730;9.108;2022-08-21T05:33:55;16.10;92.70
6792;DHT22;3433;48.730;9.108;2022-08-21T05:36:42;16.10;92.80
6792;DHT22;3433;48.730;9.108;2022-08-21T05:39:30;16.20;93.00
6792;DHT22;3433;48.730;9.108;2022-08-21T05:42:17;16.30;93.10
6792;DHT22;3433;48.730;9.108;2022-08-21T05:45:05;16.30;93.10
6792;DHT22;3433;48.730;9.108;2022-08-21T05:47:53;16.40;93.10
6792;DHT22;3433;48.730;9.108;2022-08-21T05:50:42;16.50;93.10
6792;DHT22;3433;48.730;9.108;2022-08-21T05:53:29;16.60;93.20
6792;DHT22;3433;48.730;9.108;2022-08-21T05:56:16;16.70;93.50
6792;DHT22;3433;48.730;9.108;2022-08-21T05:59:04;16.90;93.50
6792;DHT22;3433;48.730;9.108;2022-08-21T06:01:51;17.00;93.50
6792;DHT22;3433;48.730;9.108;2022-08-21T06:04:39;17.20;93.70
6792;DHT22;3433;48.730;9.108;2022-08-21T06:07:27;17.30;93.90
6792;DHT22;3433;48.730;9.108;2022-08-21T06:10:15;17.60;94.00
6792;DHT22;3433;48.730;9.108;2022-08-21T06:13:02;17.80;94.20
6792;DHT22;3433;48.730;9.108;2022-08-21T06:16:00;18.00;94.20
6792;DHT22;3433;48.730;9.108;2022-08-21T06:18:47;18.20;94.20
6792;DHT22;3433;48.730;9.108;2022-08-21T06:21:34;18.40;94.10
6792;DHT22;3433;48.730;9.108;2022-08-21T06:24:23;18.60;94.20
6792;DHT22;3433;48.730;9.108;2022-08-21T06:27:10;18.90;94.00
6792;DHT22;3433;48.730;9.108;2022-08-21T06:29:58;19.00;94.00
6792;DHT22;3433;48.730;9.108;2022-08-21T06:32:45;19.30;93.90
6792;DHT22;3433;48.730;9.108;2022-08-21T06:35:33;19.50;93.80
6792;DHT22;3433;48.730;9.108;2022-08-21T06:38:20;19.60;93.70
6792;DHT22;3433;48.730;9.108;2022-08-21T06:41:09;19.70;93.50
6792;DHT22;3433;48.730;9.108;2022-08-21T06:43:57;20.00;93.30
6792;DHT22;3433;48.730;9.108;2022-08-21T06:46:44;20.10;93.10
6792;DHT22;3433;48.730;9.108;2022-08-21T06:49:31;20.30;92.90
6792;DHT22;3433;48.730;9.108;2022-08-21T06:52:18;20.40;93.00
6792;DHT22;3433;48.730;9.108;2022-08-21T06:55:08;20.60;92.30
6792;DHT22;3433;48.730;9.108;2022-08-21T06:57:57;20.90;92.50
6792;DHT22;3433;48.730;9.108;2022-08-21T07:00:46;21.00;92.30
6792;DHT22;3433;48.730;9.108;2022-08-21T07:03:36;21.10;92.40
6792;DHT22;3433;48.730;9.108;2022-08-21T07:06:24;21.30;92.30
6792;DHT22;3433;48.730;9.108;2022-08-21T07:09:11;21.60;92.10
6792;DHT22;3433;48.730;9.108;2022-08-21T07:11:59;21.70;91.40
6792;DHT22;3433;48.730;9.108;2022-08-21T07:14:48;21.70;91.40
6792;DHT22;3433;48.730;9.108;2022-08-21T07:17:35;21.90;91.70
6792;DHT22;3433;48.730;9.108;2022-08-21T07:20:22;22.10;91.60
6792;DHT22;3433;48.730;9.108;2022-08-21T07:23:12;22.20;91.30
6792;DHT22;3433;48.730;9.108;2022-08-21T07:26:02;22.30;91.50
6792;DHT22;3433;48.730;9.108;2022-08-21T07:28:49;22.50;90.80
6792;DHT22;3433;48.730;9.108;2022-08-21T07:31:38;22.60;91.20
6792;DHT22;3433;48.730;9.108;2022-08-21T07:34:25;22.80;91.60
6792;DHT22;3433;48.730;9.108;2022-08-21T07:37:13;22.90;91.40
6792;DHT22;3433;48.730;9.108;2022-08-21T07:40:00;23.10;90.90
6792;DHT22;3433;48.730;9.108;2022-08-21T07:42:49;23.20;90.10
6792;DHT22;3433;48.730;9.108;2022-08-21T07:45:37;23.30;89.60
6792;DHT22;3433;48.730;9.108;2022-08-21T07:48:26;23.40;90.50
6792;DHT22;3433;48.730;9.108;2022-08-21T07:51:15;23.60;85.70
6792;DHT22;3433;48.730;9.108;2022-08-21T07:54:03;23.70;84.30
6792;DHT22;3433;48.730;9.108;2022-08-21T07:56:50;23.80;85.90
6792;DHT22;3433;48.730;9.108;2022-08-21T07:59:37;24.10;86.60
6792;DHT22;3433;48.730;9.108;2022-08-21T08:02:25;24.10;87.40
6792;DHT22;3433;48.730;9.108;2022-08-21T08:05:14;24.30;88.10
6792;DHT22;3433;48.730;9.108;2022-08-21T08:08:02;24.30;86.60
6792;DHT22;3433;48.730;9.108;2022-08-21T08:10:49;24.40;87.30
6792;DHT22;3433;48.730;9.108;2022-08-21T08:13:39;24.70;84.40
6792;DHT22;3433;48.730;9.108;2022-08-21T08:16:26;24.70;83.40
6792;DHT22;3433;48.730;9.108;2022-08-21T08:19:14;24.70;81.90
6792;DHT22;3433;48.730;9.108;2022-08-21T08:22:12;24.90;85.20
6792;DHT22;3433;48.730;9.108;2022-08-21T08:25:00;25.00;80.70
6792;DHT22;3433;48.730;9.108;2022-08-21T08:27:47;25.20;82.00
6792;DHT22;3433;48.730;9.108;2022-08-21T08:30:34;25.40;82.30
6792;DHT22;3433;48.730;9.108;2022-08-21T08:33:22;25.60;84.80
6792;DHT22;3433;48.730;9.108;2022-08-21T08:36:14;25.80;76.90
6792;DHT22;3433;48.730;9.108;2022-08-21T08:39:04;25.80;77.10
6792;DHT22;3433;48.730;9.108;2022-08-21T08:41:56;26.10;77.40
6792;DHT22;3433;48.730;9.108;2022-08-21T08:44:46;26.10;79.20
6792;DHT22;3433;48.730;9.108;2022-08-21T08:47:36;26.20;80.10
6792;DHT22;3433;48.730;9.108;2022-08-21T08:50:29;26.30;80.10
6792;DHT22;3433;48.730;9.108;2022-08-21T08:53:23;26.30;73.40
6792;DHT22;3433;48.730;9.108;2022-08-21T08:56:18;26.40;77.80
6792;DHT22;3433;48.730;9.108;2022-08-21T08:59:09;26.50;77.40
6792;DHT22;3433;48.730;9.108;2022-08-21T09:02:00;26.60;72.20
6792;DHT22;3433;48.730;9.108;2022-08-21T09:04:48;26.80;73.20
6792;DHT22;3433;48.730;9.108;2022-08-21T09:07:43;27.00;73.40
6792;DHT22;3433;48.730;9.108;2022-08-21T09:10:41;26.90;74.60
6792;DHT22;3433;48.730;9.108;2022-08-21T09:13:43;27.20;71.30
6792;DHT22;3433;48.730;9.108;2022-08-21T09:16:39;27.20;71.30
6792;DHT22;3433;48.730;9.108;2022-08-21T09:19:42;26.80;71.90
6792;DHT22;3433;48.730;9.108;2022-08-21T09:22:41;27.00;69.70
6792;DHT22;3433;48.730;9.108;2022-08-21T09:25:33;27.00;72.60
6792;DHT22;3433;48.730;9.108;2022-08-21T09:28:21;27.00;72.20
6792;DHT22;3433;48.730;9.108;2022-08-21T09:31:18;27.50;72.60
6792;DHT22;3433;48.730;9.108;2022-08-21T09:34:10;27.90;71.70
6792;DHT22;3433;48.730;9.108;2022-08-21T09:36:59;28.20;72.80
6792;DHT22;3433;48.730;9.108;2022-08-21T09:39:47;28.20;65.50
6792;DHT22;3433;48.730;9.108;2022-08-21T09:42:34;28.10;67.00
6792;DHT22;3433;48.730;9.108;2022-08-21T09:45:22;28.20;71.30
6792;DHT22;3433;48.730;9.108;2022-08-21T09:48:13;28.10;66.50
6792;DHT22;3433;48.730;9.108;2022-08-21T09:51:07;28.30;64.60
6792;DHT22;3433;48.730;9.108;2022-08-21T09:54:07;28.40;65.20
6792;DHT22;3433;48.730;9.108;2022-08-21T09:56:59;28.70;66.80
6792;DHT22;3433;48.730;9.108;2022-08-21T10:00:23;28.90;67.20
6792;DHT22;3433;48.730;9.108;2022-08-21T10:03:16;28.70;64.80
6792;DHT22;3433;48.730;9.108;2022-08-21T10:06:07;29.00;67.60
6792;DHT22;3433;48.730;9.108;2022-08-21T10:09:05;28.80;63.90
6792;DHT22;3433;48.730;9.108;2022-08-21T10:11:58;28.70;63.20
6792;DHT22;3433;48.730;9.108;2022-08-21T10:14:58;28.40;63.30
6792;DHT22;3433;48.730;9.108;2022-08-21T10:17:57;28.30;64.40
6792;DHT22;3433;48.730;9.108;2022-08-21T10:20:54;27.90;66.60
6792;DHT22;3433;48.730;9.108;2022-08-21T10:23:54;27.90;68.70
6792;DHT22;3433;48.730;9.108;2022-08-21T10:27:04;27.70;67.80
6792;DHT22;3433;48.730;9.108;2022-08-21T10:29:57;27.00;68.60
6792;DHT22;3433;48.730;9.108;2022-08-21T10:32:57;27.10;69.00
6792;DHT22;3433;48.730;9.108;2022-08-21T10:35:53;26.90;70.30
6792;DHT22;3433;48.730;9.108;2022-08-21T10:38:55;26.80;71.50
6792;DHT22;3433;48.730;9.108;2022-08-21T10:42:03;26.90;71.60
6792;DHT22;3433;48.730;9.108;2022-08-21T10:45:02;27.00;69.00
6792;DHT22;3433;48.730;9.108;2022-08-21T10:47:56;27.00;71.60
6792;DHT22;3433;48.730;9.108;2022-08-21T10:50:50;27.00;72.10
6792;DHT22;3433;48.730;9.108;2022-08-21T10:53:50;27.30;72.20
6792;DHT22;3433;48.730;9.108;2022-08-21T10:56:43;27.20;69.60
6792;DHT22;3433;48.730;9.108;2022-08-21T10:59:38;27.60;70.70
6792;DHT22;3433;48.730;9.108;2022-08-21T11:02:31;27.90;68.40
6792;DHT22;3433;48.730;9.108;2022-08-21T11:05:24;27.90;70.00
6792;DHT22;3433;48.730;9.108;2022-08-21T11:08:17;27.50;67.70
6792;DHT22;3433;48.730;9.108;2022-08-21T11:11:10;27.20;70.40
6792;DHT22;3433;48.730;9.108;2022-08-21T11:14:01;27.20;71.20
6792;DHT22;3433;48.730;9.108;2022-08-21T11:16:56;27.00;71.70
6792;DHT22;3433;48.730;9.108;2022-08-21T11:19:59;27.20;70.50
6792;DHT22;3433;48.730;9.108;2022-08-21T11:22:50;27.60;68.90
6792;DHT22;3433;48.730;9.108;2022-08-21T11:25:46;27.90;69.00
6792;DHT22;3433;48.730;9.108;2022-08-21T11:28:37;28.40;69.20
6792;DHT22;3433;48.730;9.108;2022-08-21T11:31:38;28.00;67.50
6792;DHT22;3433;48.730;9.108;2022-08-21T11:34:41;27.70;68.20
6792;DHT22;3433;48.730;9.108;2022-08-21T11:37:51;28.30;66.70
6792;DHT22;3433;48.730;9.108;2022-08-21T11:41:01;28.80;67.20
6792;DHT22;3433;48.730;9.108;2022-08-21T11:43:55;29.10;66.00
6792;DHT22;3433;48.730;9.108;2022-08-21T11:46:51;29.60;68.10
6792;DHT22;3433;48.730;9.108;2022-08-21T11:49:57;29.20;63.10
6792;DHT22;3433;48.730;9.108;2022-08-21T11:52:53;29.10;63.70
6792;DHT22;3433;48.730;9.108;2022-08-21T11:55:46;29.00;64.90
6792;DHT22;3433;48.730;9.108;2022-08-21T11:58:39;29.30;64.50
6792;DHT22;3433;48.730;9.108;2022-08-21T12:01:30;29.30;64.80
6792;DHT22;3433;48.730;9.108;2022-08-21T12:04:24;29.60;61.80
6792;DHT22;3433;48.730;9.108;2022-08-21T12:07:15;29.60;63.10
6792;DHT22;3433;48.730;9.108;2022-08-21T12:10:08;29.30;61.70
6792;DHT22;3433;48.730;9.108;2022-08-21T12:13:06;29.00;60.40
6792;DHT22;3433;48.730;9.108;2022-08-21T12:16:07;29.20;61.50
6792;DHT22;3433;48.730;9.108;2022-08-21T12:19:03;29.80;60.50
6792;DHT22;3433;48.730;9.108;2022-08-21T12:21:53;30.20;60.20
6792;DHT22;3433;48.730;9.108;2022-08-21T12:24:43;30.50;59.20
6792;DHT22;3433;48.730;9.108;2022-08-21T12:27:44;29.80;61.00
6792;DHT22;3433;48.730;9.108;2022-08-21T12:30:36;29.60;64.90
6792;DHT22;3433;48.730;9.108;2022-08-21T12:33:28;29.40;64.30
6792;DHT22;3433;48.730;9.108;2022-08-21T12:36:19;28.90;64.00
6792;DHT22;3433;48.730;9.108;2022-08-21T12:39:13;28.20;61.70
6792;DHT22;3433;48.730;9.108;2022-08-21T12:42:05;27.80;63.60
6792;DHT22;3433;48.730;9.108;2022-08-21T12:44:56;27.50;62.80
6792;DHT22;3433;48.730;9.108;2022-08-21T12:47:49;27.40;64.70
6792;DHT22;3433;48.730;9.108;2022-08-21T12:50:41;27.20;63.70
6792;DHT22;3433;48.730;9.108;2022-08-21T12:53:35;27.20;64.60
6792;DHT22;3433;48.730;9.108;2022-08-21T12:56:27;27.00;63.70
6792;DHT22;3433;48.730;9.108;2022-08-21T12:59:15;27.10;63.90
6792;DHT22;3433;48.730;9.108;2022-08-21T13:02:05;26.80;64.00
6792;DHT22;3433;48.730;9.108;2022-08-21T13:04:58;26.70;64.00
6792;DHT22;3433;48.730;9.108;2022-08-21T13:07:50;26.70;63.90
6792;DHT22;3433;48.730;9.108;2022-08-21T13:10:40;26.60;65.40
6792;DHT22;3433;48.730;9.108;2022-08-21T13:13:28;26.60;65.70
6792;DHT22;3433;48.730;9.108;2022-08-21T13:16:20;26.70;65.20
6792;DHT22;3433;48.730;9.108;2022-08-21T13:19:11;27.10;65.40
6792;DHT22;3433;48.730;9.108;2022-08-21T13:22:03;27.70;63.60
6792;DHT22;3433;48.730;9.108;2022-08-21T13:24:59;28.30;62.40
6792;DHT22;3433;48.730;9.108;2022-08-21T13:27:58;28.80;62.80
6792;DHT22;3433;48.730;9.108;2022-08-21T13:30:48;29.20;62.40
6792;DHT22;3433;48.730;9.108;2022-08-21T13:33:37;29.70;64.50
6792;DHT22;3433;48.730;9.108;2022-08-21T13:36:28;29.80;61.70
6792;DHT22;3433;48.730;9.108;2022-08-21T13:39:18;29.90;62.90
6792;DHT22;3433;48.730;9.108;2022-08-21T13:42:10;30.00;57.00
6792;DHT22;3433;48.730;9.108;2022-08-21T13:44:58;30.10;59.60
6792;DHT22;3433;48.730;9.108;2022-08-21T13:47:47;29.80;59.60
6792;DHT22;3433;48.730;9.108;2022-08-21T13:50:37;29.90;56.60
6792;DHT22;3433;48.730;9.108;2022-08-21T13:53:29;30.20;57.90
6792;DHT22;3433;48.730;9.108;2022-08-21T13:56:24;30.10;56.90
6792;DHT22;3433;48.730;9.108;2022-08-21T13:59:24;30.30;58.30
6792;DHT22;3433;48.730;9.108;2022-08-21T14:02:15;30.50;59.90
6792;DHT22;3433;48.730;9.108;2022-08-21T14:05:03;30.40;58.40
6792;DHT22;3433;48.730;9.108;2022-08-21T14:07:51;30.60;54.80
6792;DHT22;3433;48.730;9.108;2022-08-21T14:10:47;30.60;56.70
6792;DHT22;3433;48.730;9.108;2022-08-21T14:13:37;30.00;54.70
6792;DHT22;3433;48.730;9.108;2022-08-21T14:16:29;29.40;56.40
6792;DHT22;3433;48.730;9.108;2022-08-21T14:19:34;29.20;56.50
6792;DHT22;3433;48.730;9.108;2022-08-21T14:22:27;29.40;58.80
6792;DHT22;3433;48.730;9.108;2022-08-21T14:25:28;29.20;59.00
6792;DHT22;3433;48.730;9.108;2022-08-21T14:28:24;29.10;58.60
6792;DHT22;3433;48.730;9.108;2022-08-21T14:31:15;29.10;56.60
6792;DHT22;3433;48.730;9.108;2022-08-21T14:34:04;29.20;56.20
6792;DHT22;3433;48.730;9.108;2022-08-21T14:36:52;29.00;55.50
6792;DHT22;3433;48.730;9.108;2022-08-21T14:39:40;28.90;57.10
6792;DHT22;3433;48.730;9.108;2022-08-21T14:42:28;29.30;55.40
6792;DHT22;3433;48.730;9.108;2022-08-21T14:45:17;29.30;55.80
6792;DHT22;3433;48.730;9.108;2022-08-21T14:48:05;29.70;58.80
6792;DHT22;3433;48.730;9.108;2022-08-21T14:50:54;29.60;55.60
6792;DHT22;3433;48.730;9.108;2022-08-21T14:53:42;29.90;55.50
6792;DHT22;3433;48.730;9.108;2022-08-21T14:56:30;29.90;57.20
6792;DHT22;3433;48.730;9.108;2022-08-21T14:59:17;29.80;54.40
6792;DHT22;3433;48.730;9.108;2022-08-21T15:02:07;29.70;54.80
6792;DHT22;3433;48.730;9.108;2022-08-21T15:04:55;29.70;54.50
6792;DHT22;3433;48.730;9.108;2022-08-21T15:07:43;29.90;55.90
6792;DHT22;3433;48.730;9.108;2022-08-21T15:10:33;30.20;56.40
6792;DHT22;3433;48.730;9.108;2022-08-21T15:13:21;30.50;56.90
6792;DHT22;3433;48.730;9.108;2022-08-21T15:16:09;30.70;57.50
6792;DHT22;3433;48.730;9.108;2022-08-21T15:18:57;30.90;58.70
6792;DHT22;3433;48.730;9.108;2022-08-21T15:21:45;30.80;56.20
6792;DHT22;3433;48.730;9.108;2022-08-21T15:24:33;30.70;53.50
6792;DHT22;3433;48.730;9.108;2022-08-21T15:27:21;30.60;55.70
6792;DHT22;3433;48.730;9.108;2022-08-21T15:30:09;30.70;54.70
6792;DHT22;3433;48.730;9.108;2022-08-21T15:32:56;30.40;54.80
6792;DHT22;3433;48.730;9.108;2022-08-21T15:35:44;30.50;57.40
6792;DHT22;3433;48.730;9.108;2022-08-21T15:38:31;30.60;54.30
6792;DHT22;3433;48.730;9.108;2022-08-21T15:41:20;30.40;56.00
6792;DHT22;3433;48.730;9.108;2022-08-21T15:44:09;30.10;52.70
6792;DHT22;3433;48.730;9.108;2022-08-21T15:46:59;30.20;54.90
6792;DHT22;3433;48.730;9.108;2022-08-21T16:03:30;30.40;56.50
6792;DHT22;3433;48.730;9.108;2022-08-21T16:06:18;30.40;57.00
6792;DHT22;3433;48.730;9.108;2022-08-21T16:09:06;30.30;56.90
6792;DHT22;3433;48.730;9.108;2022-08-21T16:11:53;29.90;55.00
6792;DHT22;3433;48.730;9.108;2022-08-21T16:14:40;29.30;56.30
6792;DHT22;3433;48.730;9.108;2022-08-21T16:17:31;29.30;56.10
6792;DHT22;3433;48.730;9.108;2022-08-21T16:20:23;29.40;58.20
6792;DHT22;3433;48.730;9.108;2022-08-21T16:23:11;28.70;54.00
6792;DHT22;3433;48.730;9.108;2022-08-21T16:25:59;28.70;54.70
6792;DHT22;3433;48.730;9.108;2022-08-21T16:28:49;28.70;55.30
6792;DHT22;3433;48.730;9.108;2022-08-21T16:31:38;28.70;55.00
6792;DHT22;3433;48.730;9.108;2022-08-21T16:34:26;28.60;54.90
6792;DHT22;3433;48.730;9.108;2022-08-21T16:37:16;28.30;53.30
6792;DHT22;3433;48.730;9.108;2022-08-21T16:40:04;28.10;54.30
6792;DHT22;3433;48.730;9.108;2022-08-21T16:42:53;28.10;53.90
6792;DHT22;3433;48.730;9.108;2022-08-21T16:45:42;27.90;53.50
6792;DHT22;3433;48.730;9.108;2022-08-21T16:48:30;27.80;54.30
6792;DHT22;3433;48.730;9.108;2022-08-21T16:51:17;27.80;56.20
6792;DHT22;3433;48.730;9.108;2022-08-21T16:54:06;27.80;55.40
6792;DHT22;3433;48.730;9.108;2022-08-21T16:56:53;27.70;56.50
6792;DHT22;3433;48.730;9.108;2022-08-21T16:59:41;27.60;56.10
6792;DHT22;3433;48.730;9.108;2022-08-21T17:02:32;27.60;57.20
6792;DHT22;3433;48.730;9.108;2022-08-21T17:05:21;27.50;55.20
6792;DHT22;3433;48.730;9.108;2022-08-21T17:08:08;27.20;54.80
6792;DHT22;3433;48.730;9.108;2022-08-21T17:10:57;27.10;55.00
6792;DHT22;3433;48.730;9.108;2022-08-21T17:13:45;26.80;55.00
6792;DHT22;3433;48.730;9.108;2022-08-21T17:16:33;26.80;56.50
6792;DHT22;3433;48.730;9.108;2022-08-21T17:19:22;26.80;56.40
6792;DHT22;3433;48.730;9.108;2022-08-21T17:22:10;26.70;55.60
6792;DHT22;3433;48.730;9.108;2022-08-21T17:24:58;26.70;57.20
6792;DHT22;3433;48.730;9.108;2022-08-21T17:27:48;26.70;57.30
6792;DHT22;3433;48.730;9.108;2022-08-21T17:30:36;26.70;58.00
6792;DHT22;3433;48.730;9.108;2022-08-21T17:33:32;26.70;58.40
6792;DHT22;3433;48.730;9.108;2022-08-21T17:36:25;26.60;58.90
6792;DHT22;3433;48.730;9.108;2022-08-21T17:39:14;26.50;59.00
6792;DHT22;3433;48.730;9.108;2022-08-21T17:42:05;26.50;59.40
6792;DHT22;3433;48.730;9.108;2022-08-21T17:44:55;26.40;60.00
6792;DHT22;3433;48.730;9.108;2022-08-21T17:47:43;26.30;60.20
6792;DHT22;3433;48.730;9.108;2022-08-21T17:50:31;26.20;60.20
6792;DHT22;3433;48.730;9.108;2022-08-21T17:53:18;26.20;60.60
6792;DHT22;3433;48.730;9.108;2022-08-21T17:56:07;26.10;61.00
6792;DHT22;3433;48.730;9.108;2022-08-21T17:58:55;26.10;61.20
6792;DHT22;3433;48.730;9.108;2022-08-21T18:01:44;26.00;61.60
6792;DHT22;3433;48.730;9.108;2022-08-21T18:04:33;25.90;61.60
6792;DHT22;3433;48.730;9.108;2022-08-21T18:07:21;25.90;61.60
6792;DHT22;3433;48.730;9.108;2022-08-21T18:10:10;25.80;61.70
6792;DHT22;3433;48.730;9.108;2022-08-21T18:12:59;25.70;62.10
6792;DHT22;3433;48.730;9.108;2022-08-21T18:15:50;25.70;62.20
6792;DHT22;3433;48.730;9.108;2022-08-21T18:18:42;25.60;62.10
6792;DHT22;3433;48.730;9.108;2022-08-21T18:21:30;25.50;62.20
6792;DHT22;3433;48.730;9.108;2022-08-21T18:24:19;25.50;62.60
6792;DHT22;3433;48.730;9.108;2022-08-21T18:27:07;25.40;62.60
6792;DHT22;3433;48.730;9.108;2022-08-21T18:29:56;25.40;63.20
6792;DHT22;3433;48.730;9.108;2022-08-21T18:32:45;25.30;63.00
6792;DHT22;3433;48.730;9.108;2022-08-21T18:35:34;25.20;63.40
6792;DHT22;3433;48.730;9.108;2022-08-21T18:38:22;25.10;63.60
6792;DHT22;3433;48.730;9.108;2022-08-21T18:41:10;25.00;63.90
6792;DHT22;3433;48.730;9.108;2022-08-21T18:43:58;25.00;64.40